Time;durP1;ratioP1;P1;durP2;ratioP2;P2;SDS_P1;SDS_P2;PMS_P1;PMS_P2;Temp;Humidity;BMP_temperature;BMP_pressure;BME280_temperature;BME280_humidity;BME280_pressure;Samples;Min_cycle;Max_cycle;Signal;HPM_P1;HPM_P2
2022/05/17 00:00:29;;;;;;;12.10;6.93;;;;;;;10.04;72.02;98027.44;6190503;23;20016;-79
2022/05/17 00:02:57;;;;;;;15.43;7.22;;;;;;;10.01;72.38;98019.75;6190562;23;20044;-79
2022/05/17 00:05:24;;;;;;;10.20;7.15;;;;;;;9.93;72.10;98005.31;6215757;23;20044;-78
2022/05/17 00:07:50;;;;;;;12.57;7.25;;;;;;;9.98;72.28;98016.38;6217355;23;20020;-78
2022/05/17 00:10:15;;;;;;;14.85;6.32;;;;;;;9.96;72.53;98029.03;6205914;23;20021;-79
2022/05/17 00:12:41;;;;;;;11.98;6.80;;;;;;;9.96;72.47;98023.69;6180949;23;20021;-80
2022/05/17 00:15:08;;;;;;;12.32;6.43;;;;;;;9.95;72.51;98030.03;6232602;23;20016;-79
2022/05/17 00:17:34;;;;;;;11.52;6.85;;;;;;;9.86;72.95;98020.25;6182615;23;20030;-80
2022/05/17 00:20:00;;;;;;;10.48;7.13;;;;;;;9.81;72.98;98025.19;6196306;23;20016;-79
2022/05/17 00:22:26;;;;;;;11.15;7.10;;;;;;;9.87;72.70;98023.75;6216840;23;20340;-82
2022/05/17 00:24:53;;;;;;;10.13;7.38;;;;;;;9.99;72.79;98030.56;6216830;23;20017;-78
2022/05/17 00:27:19;;;;;;;16.05;8.02;;;;;;;9.96;72.72;98022.84;6191493;23;20333;-77
2022/05/17 00:29:44;;;;;;;10.95;8.05;;;;;;;10.02;72.62;98026.75;6217220;23;20013;-78
2022/05/17 00:32:11;;;;;;;14.73;8.57;;;;;;;9.99;72.83;98022.56;6190931;23;20013;-78
2022/05/17 00:34:37;;;;;;;10.73;7.78;;;;;;;10.11;72.53;98024.00;6190541;23;20104;-78
2022/05/17 00:37:04;;;;;;;12.50;6.97;;;;;;;10.17;72.53;98027.91;6166061;23;20354;-79
2022/05/17 00:39:29;;;;;;;9.20;6.93;;;;;;;10.14;72.20;98021.03;6190777;23;20031;-79
2022/05/17 00:41:55;;;;;;;11.73;7.32;;;;;;;10.20;71.98;98022.28;6190945;23;20048;-79
2022/05/17 00:47:23;;;;;;;13.20;7.05;;;;;;;10.26;72.15;98023.50;6216016;23;20024;-79
2022/05/17 00:49:53;;;;;;;12.02;7.07;;;;;;;10.30;72.04;98015.03;6190422;23;20395;-79
2022/05/17 00:52:32;;;;;;;9.45;7.30;;;;;;;10.32;71.63;98026.41;6215359;23;20444;-79
2022/05/17 00:55:04;;;;;;;9.57;7.00;;;;;;;10.32;71.59;98025.56;6190725;23;20044;-80
2022/05/17 00:57:42;;;;;;;10.73;7.25;;;;;;;10.28;71.65;98006.34;6215971;23;20025;-79
2022/05/17 01:00:14;;;;;;;12.07;7.40;;;;;;;10.38;71.71;98027.59;6191119;23;20027;-79
2022/05/17 01:02:47;;;;;;;11.23;7.68;;;;;;;10.38;71.82;98024.94;6216056;23;20024;-79
2022/05/17 01:05:14;;;;;;;15.38;8.73;;;;;;;10.41;71.57;98020.13;6165417;23;20051;-78
2022/05/17 01:07:43;;;;;;;15.13;7.60;;;;;;;10.53;71.14;98020.75;6189821;23;20020;-78
2022/05/17 01:10:10;;;;;;;11.55;8.43;;;;;;;10.53;70.95;98011.88;6190656;23;20348;-80
2022/05/17 01:12:38;;;;;;;10.93;7.90;;;;;;;10.57;71.15;98015.91;6190297;23;20106;-78
2022/05/17 01:15:07;;;;;;;9.82;6.95;;;;;;;10.56;70.86;98024.94;6190068;23;20017;-79
2022/05/17 01:17:37;;;;;;;8.85;6.72;;;;;;;10.57;70.65;98018.59;6215043;23;20020;-78
2022/05/17 01:20:09;;;;;;;12.60;7.10;;;;;;;10.62;70.74;98018.97;6190133;23;20016;-78
2022/05/17 01:22:35;;;;;;;12.63;8.13;;;;;;;10.72;70.37;98025.06;6190146;23;20088;-78
2022/05/17 01:25:01;;;;;;;12.95;6.85;;;;;;;10.76;70.48;98026.44;6214695;23;20024;-78
2022/05/17 01:27:47;;;;;;;12.95;6.93;;;;;;;10.74;70.15;98023.06;6190437;23;20055;-78
2022/05/17 01:30:21;;;;;;;9.32;6.93;;;;;;;10.82;69.87;98016.94;6215209;23;20028;-79
2022/05/17 01:32:47;;;;;;;9.77;6.65;;;;;;;10.86;70.07;98021.81;6215446;23;20103;-79
2022/05/17 01:35:14;;;;;;;12.63;7.93;;;;;;;10.88;69.94;98014.47;6214894;23;20031;-79
2022/05/17 01:37:40;;;;;;;8.77;6.07;;;;;;;10.99;69.65;98026.75;6189591;23;20024;-78
2022/05/17 01:40:07;;;;;;;6.57;5.80;;;;;;;11.03;69.27;98032.63;6214591;23;20012;-81
2022/05/17 01:42:33;;;;;;;8.93;6.03;;;;;;;10.97;68.94;98036.75;6164445;23;20012;-80
2022/05/17 01:44:59;;;;;;;10.90;5.65;;;;;;;10.92;69.46;98029.22;6164897;23;20472;-79
2022/05/17 01:47:25;;;;;;;10.77;6.03;;;;;;;10.90;69.65;98039.22;6189824;23;20040;-78
2022/05/17 01:49:50;;;;;;;9.70;6.35;;;;;;;10.90;69.35;98039.22;6164752;23;20070;-79
2022/05/17 01:52:16;;;;;;;10.48;6.88;;;;;;;10.85;69.70;98038.84;6214548;23;20028;-78
2022/05/17 01:54:42;;;;;;;19.20;7.20;;;;;;;10.93;69.46;98038.91;6189308;23;20356;-80
2022/05/17 01:57:08;;;;;;;14.60;8.32;;;;;;;10.97;69.55;98041.28;6214369;23;20036;-80
2022/05/17 01:59:34;;;;;;;12.95;7.60;;;;;;;11.01;69.47;98032.78;6214821;23;20014;-78
2022/05/17 02:02:02;;;;;;;19.42;7.50;;;;;;;11.03;69.12;98033.47;6215766;23;20025;-80
2022/05/17 02:04:28;;;;;;;14.90;7.60;;;;;;;11.10;69.16;98029.16;6188565;23;20017;-78
2022/05/17 02:06:55;;;;;;;19.35;8.70;;;;;;;11.14;69.04;98037.72;6215912;23;20032;-79
2022/05/17 02:09:21;;;;;;;14.68;9.52;;;;;;;11.19;69.04;98035.38;6214167;23;20507;-79
2022/05/17 02:11:46;;;;;;;15.38;9.60;;;;;;;11.13;69.37;98019.97;6214213;23;20030;-79
2022/05/17 02:14:12;;;;;;;19.15;10.88;;;;;;;11.27;69.40;98039.94;6214504;23;20017;-78
2022/05/17 02:16:39;;;;;;;19.27;11.75;;;;;;;11.32;69.08;98027.78;6189135;23;20203;-79
2022/05/17 02:19:08;;;;;;;15.48;10.45;;;;;;;11.42;68.99;98049.06;6189361;23;20021;-78
2022/05/17 02:21:36;;;;;;;15.57;9.60;;;;;;;11.39;68.45;98034.16;6239209;23;20383;-79
2022/05/17 02:24:04;;;;;;;22.02;10.32;;;;;;;11.37;68.83;98030.81;6188819;23;20467;-80
2022/05/17 02:26:30;;;;;;;14.27;10.13;;;;;;;11.54;68.91;98041.56;6215417;23;20016;-80
2022/05/17 02:28:56;;;;;;;12.98;9.60;;;;;;;11.62;68.26;98039.78;6215809;23;20051;-80
2022/05/17 02:31:22;;;;;;;21.60;9.52;;;;;;;11.58;68.14;98032.22;6188981;23;20024;-79
2022/05/17 02:33:48;;;;;;;16.35;8.40;;;;;;;11.42;68.31;98009.75;6189016;23;20020;-79
2022/05/17 02:36:14;;;;;;;20.00;9.60;;;;;;;11.63;68.05;98037.94;6214244;23;20027;-80
2022/05/17 02:38:41;;;;;;;16.05;8.75;;;;;;;11.70;68.23;98046.16;6214118;23;20035;-79
2022/05/17 02:41:07;;;;;;;11.98;8.30;;;;;;;11.73;68.41;98041.31;6213861;23;20021;-80
2022/05/17 02:43:33;;;;;;;17.48;8.18;;;;;;;11.78;68.04;98049.72;6214237;23;20016;-80
2022/05/17 02:45:59;;;;;;;22.30;8.23;;;;;;;11.77;68.15;98052.53;6214035;23;20020;-79
2022/05/17 02:48:25;;;;;;;20.80;7.85;;;;;;;11.71;67.95;98054.03;6213422;23;20016;-80
2022/05/17 02:50:51;;;;;;;14.95;7.15;;;;;;;11.75;68.10;98059.91;6213508;23;20028;-80
2022/05/17 02:53:17;;;;;;;14.80;6.95;;;;;;;11.56;68.23;98040.44;6188835;23;20071;-81
2022/05/17 02:55:43;;;;;;;10.00;6.97;;;;;;;11.71;68.04;98059.38;6189220;23;20107;-80
2022/05/17 02:58:09;;;;;;;10.32;7.00;;;;;;;11.73;68.56;98046.66;6188918;23;20055;-80
2022/05/17 03:00:35;;;;;;;11.55;6.35;;;;;;;11.80;67.92;98052.22;6189843;23;20456;-80
2022/05/17 03:03:02;;;;;;;8.60;6.03;;;;;;;11.77;68.24;98063.25;6214684;23;20022;-79
2022/05/17 03:05:28;;;;;;;21.05;5.68;;;;;;;11.85;68.23;98074.88;6214654;23;20094;-80
2022/05/17 03:07:54;;;;;;;11.77;5.45;;;;;;;11.94;67.86;98074.91;6213586;23;20012;-80
2022/05/17 03:10:20;;;;;;;16.45;5.90;;;;;;;11.96;67.47;98067.53;6196809;23;20024;-79
2022/05/17 03:12:46;;;;;;;11.35;5.68;;;;;;;12.05;67.46;98072.75;6217285;23;20052;-79
2022/05/17 03:15:18;;;;;;;9.85;5.00;;;;;;;12.16;67.36;98068.94;6214018;23;20020;-80
2022/05/17 03:17:44;;;;;;;13.20;5.50;;;;;;;12.35;66.76;98074.00;6214240;23;20017;-79
2022/05/17 03:20:10;;;;;;;15.80;5.40;;;;;;;12.42;65.99;98078.72;6189353;23;20080;-79
2022/05/17 03:22:36;;;;;;;12.77;5.65;;;;;;;12.36;66.37;98061.44;6192243;23;20017;-82
2022/05/17 03:25:03;;;;;;;10.48;5.03;;;;;;;12.52;66.28;98064.13;6197538;23;20051;-80
2022/05/17 03:27:30;;;;;;;7.47;5.15;;;;;;;12.68;65.86;98068.69;6224609;23;20020;-80
2022/05/17 03:29:58;;;;;;;6.55;5.22;;;;;;;12.70;65.67;98081.91;6228351;23;20064;-81
2022/05/17 03:32:26;;;;;;;14.27;6.00;;;;;;;12.76;65.61;98075.88;6226798;23;20072;-79
2022/05/17 03:34:56;;;;;;;15.30;6.00;;;;;;;12.93;65.04;98076.69;6220664;23;20020;-80
2022/05/17 03:37:22;;;;;;;9.52;6.15;;;;;;;13.09;64.69;98065.97;6216753;23;20020;-79
2022/05/17 03:39:48;;;;;;;8.93;5.47;;;;;;;13.26;63.67;98069.50;6216804;23;20070;-80
2022/05/17 03:42:14;;;;;;;11.98;5.78;;;;;;;13.33;63.17;98068.63;6217126;23;20028;-79
2022/05/17 03:44:40;;;;;;;15.90;6.07;;;;;;;13.35;62.99;98066.63;6189209;23;20020;-79
2022/05/17 03:47:08;;;;;;;7.80;4.45;;;;;;;13.31;62.86;98057.25;6165742;23;20445;-79
2022/05/17 03:49:38;;;;;;;6.63;4.32;;;;;;;13.48;61.96;98065.25;6220177;23;20023;-80
2022/05/17 03:52:05;;;;;;;11.93;4.23;;;;;;;13.47;62.10;98052.84;6217265;23;20052;-81
2022/05/17 03:54:32;;;;;;;12.85;4.50;;;;;;;13.60;62.88;98069.22;6193973;23;20027;-88
2022/05/17 03:56:58;;;;;;;18.98;4.75;;;;;;;13.66;62.22;98062.34;6192086;23;20021;-82
2022/05/17 03:59:24;;;;;;;10.52;4.68;;;;;;;13.64;62.70;98073.22;6217297;23;20083;-80
2022/05/17 04:01:50;;;;;;;12.55;5.07;;;;;;;13.76;61.63;98073.69;6223177;23;20027;-87
2022/05/17 04:04:16;;;;;;;8.70;4.75;;;;;;;13.81;61.00;98074.84;6221299;23;20036;-80
2022/05/17 04:06:42;;;;;;;8.73;4.95;;;;;;;13.63;61.16;98071.56;6220014;23;20356;-80
2022/05/17 04:09:08;;;;;;;15.68;5.10;;;;;;;13.42;61.73;98053.34;6218605;23;20105;-81
2022/05/17 04:11:34;;;;;;;16.73;4.78;;;;;;;13.52;61.86;98077.31;6220917;23;20021;-83
2022/05/17 04:14:02;;;;;;;8.35;4.63;;;;;;;13.58;61.77;98068.56;6222091;23;20028;-82
2022/05/17 04:16:33;;;;;;;13.02;4.70;;;;;;;13.62;61.59;98063.69;6193715;23;20020;-79
2022/05/17 04:18:59;;;;;;;6.78;3.88;;;;;;;13.73;61.62;98080.28;6215990;23;20017;-77
2022/05/17 04:21:25;;;;;;;4.72;4.13;;;;;;;13.76;61.80;98089.81;6214920;23;20020;-85
2022/05/17 04:23:52;;;;;;;4.10;2.88;;;;;;;13.70;61.63;98090.50;6165997;23;20448;-77
2022/05/17 04:26:19;;;;;;;4.38;3.05;;;;;;;13.84;64.25;98087.09;6217163;23;20329;-87
2022/05/17 04:28:45;;;;;;;3.22;2.50;;;;;;;14.37;65.21;98098.06;6192243;23;20484;-81
2022/05/17 04:31:11;;;;;;;6.65;2.40;;;;;;;15.04;64.75;98082.13;6193084;23;20021;-83
2022/05/17 04:33:36;;;;;;;6.00;2.30;;;;;;;15.47;61.01;98068.94;6219487;23;20049;-87
2022/05/17 04:36:02;;;;;;;6.60;2.15;;;;;;;15.73;60.25;98077.44;6218856;23;20021;-81
2022/05/17 04:38:28;;;;;;;3.17;1.60;;;;;;;16.18;58.33;98091.69;6189921;23;20485;-83
2022/05/17 04:40:54;;;;;;;3.83;2.00;;;;;;;16.38;58.12;98083.00;6191601;23;20020;-79
2022/05/17 04:43:21;;;;;;;6.45;1.75;;;;;;;16.46;56.87;98083.69;6191480;23;20016;-82
2022/05/17 04:45:48;;;;;;;7.70;1.70;;;;;;;16.74;56.36;98093.78;6215630;23;20034;-83
2022/05/17 04:48:14;;;;;;;3.58;2.03;;;;;;;16.69;54.83;98086.22;6217630;23;20021;-89
2022/05/17 04:50:40;;;;;;;3.70;1.80;;;;;;;16.61;55.00;98083.66;6218824;23;20024;-85
2022/05/17 04:53:06;;;;;;;3.10;2.08;;;;;;;16.39;55.39;98081.94;6221711;23;20027;-90
2022/05/17 04:55:33;;;;;;;5.03;2.20;;;;;;;16.18;56.23;98080.91;6225034;23;20028;-87
2022/05/17 04:57:59;;;;;;;2.75;1.88;;;;;;;16.00;57.03;98092.09;6222708;23;20025;-85
2022/05/17 05:00:26;;;;;;;4.78;2.05;;;;;;;15.74;57.81;98092.56;6218123;23;20456;-87
2022/05/17 05:02:53;;;;;;;2.67;1.80;;;;;;;15.64;58.23;98086.56;6217105;23;20021;-79
2022/05/17 05:05:20;;;;;;;2.80;2.10;;;;;;;15.70;58.19;98101.22;6216680;23;20175;-78
2022/05/17 05:07:46;;;;;;;4.80;2.15;;;;;;;15.68;58.42;98098.72;6168682;23;20468;-78
2022/05/17 05:10:13;;;;;;;3.15;2.00;;;;;;;15.66;58.96;98095.34;6189873;23;20027;-79
2022/05/17 05:12:39;;;;;;;2.70;2.08;;;;;;;15.74;58.56;98103.34;6214684;23;20048;-79
2022/05/17 05:15:06;;;;;;;2.58;2.13;;;;;;;15.57;58.71;98082.13;6239091;23;20020;-80
2022/05/17 05:17:33;;;;;;;5.35;2.08;;;;;;;15.70;58.79;98102.03;6217854;23;20023;-89
2022/05/17 05:20:00;;;;;;;2.42;1.83;;;;;;;15.77;59.15;98092.19;6218854;23;20078;-91
2022/05/17 05:22:26;;;;;;;3.00;2.00;;;;;;;15.97;58.77;98092.44;6217776;23;20016;-80
2022/05/17 05:24:52;;;;;;;2.90;1.75;;;;;;;16.17;58.39;98094.56;6218398;23;20087;-76
2022/05/17 05:27:19;;;;;;;3.17;1.95;;;;;;;16.07;57.50;98100.25;6192190;23;20025;-81
2022/05/17 05:29:45;;;;;;;3.60;1.80;;;;;;;15.91;57.70;98095.06;6216886;23;20460;-82
2022/05/17 05:32:11;;;;;;;2.40;2.08;;;;;;;15.91;58.00;98093.22;6193233;23;20028;-80
2022/05/17 05:34:37;;;;;;;2.20;1.75;;;;;;;15.72;58.69;98100.00;6221531;23;20023;-85
2022/05/17 05:37:03;;;;;;;7.82;2.40;;;;;;;15.73;58.87;98101.69;6219930;23;20023;-82
2022/05/17 05:39:30;;;;;;;2.42;1.83;;;;;;;15.77;59.32;98102.97;6192452;23;20024;-80
2022/05/17 05:41:57;;;;;;;3.20;2.13;;;;;;;16.08;59.10;98103.78;6191143;23;20066;-80
2022/05/17 05:44:23;;;;;;;2.30;2.10;;;;;;;16.30;58.22;98099.28;6213671;23;20016;-80
2022/05/17 05:46:50;;;;;;;2.35;2.03;;;;;;;16.65;57.58;98109.22;6190902;23;20020;-81
2022/05/17 05:49:16;;;;;;;2.97;1.88;;;;;;;16.68;56.73;98095.34;6190569;23;20016;-83
2022/05/17 05:51:42;;;;;;;5.63;2.33;;;;;;;16.88;56.20;98102.81;6217225;23;20043;-79
2022/05/17 05:54:09;;;;;;;5.28;1.80;;;;;;;16.99;55.37;98107.72;6213793;23;20019;-78
2022/05/17 05:56:38;;;;;;;2.05;1.85;;;;;;;17.27;55.45;98110.47;6213904;23;20028;-78
2022/05/17 05:59:05;;;;;;;2.00;1.70;;;;;;;17.54;54.32;98106.06;6188509;23;20016;-76
2022/05/17 06:01:30;;;;;;;4.53;2.17;;;;;;;17.62;54.52;98100.50;6213778;23;20028;-78
2022/05/17 06:03:56;;;;;;;3.63;2.80;;;;;;;17.65;53.78;98102.81;6189106;23;20016;-79
2022/05/17 06:06:22;;;;;;;4.00;3.60;;;;;;;17.76;53.24;98101.47;6164268;23;20532;-78
2022/05/17 06:08:48;;;;;;;9.45;4.38;;;;;;;17.64;53.42;98108.41;6213813;23;20017;-77
2022/05/17 06:11:15;;;;;;;5.35;3.22;;;;;;;17.79;52.87;98111.03;6190010;23;20027;-78
2022/05/17 06:13:41;;;;;;;5.78;2.60;;;;;;;18.08;53.41;98108.06;6190343;23;20020;-77
2022/05/17 06:16:08;;;;;;;5.55;2.30;;;;;;;18.38;52.62;98113.19;6216469;23;20075;-78
2022/05/17 06:18:34;;;;;;;2.00;1.70;;;;;;;18.50;51.46;98111.56;6188591;23;20414;-80
2022/05/17 06:21:02;;;;;;;7.88;1.80;;;;;;;18.42;50.96;98111.75;6213645;23;20356;-79
2022/05/17 06:23:28;;;;;;;1.75;1.63;;;;;;;18.31;51.24;98106.94;6237891;23;20023;-79
2022/05/17 06:25:54;;;;;;;5.85;2.00;;;;;;;18.11;51.61;98110.38;6214870;23;20468;-78
2022/05/17 06:28:20;;;;;;;5.57;1.90;;;;;;;17.93;51.84;98110.91;6162972;23;20025;-78
2022/05/17 06:30:46;;;;;;;4.95;4.18;;;;;;;17.92;52.25;98113.81;6214024;23;20090;-79
2022/05/17 06:33:15;;;;;;;8.95;6.13;;;;;;;18.08;52.93;98112.66;6213855;23;20444;-78
2022/05/17 06:35:43;;;;;;;3.45;2.33;;;;;;;18.15;52.14;98116.22;6215003;23;20020;-80
2022/05/17 06:38:09;;;;;;;7.03;4.00;;;;;;;18.22;51.07;98118.97;6188141;23;20024;-79
2022/05/17 06:40:36;;;;;;;6.18;3.30;;;;;;;18.15;51.65;98108.94;6238603;23;20079;-78
2022/05/17 06:43:02;;;;;;;8.20;1.80;;;;;;;18.24;51.80;98119.59;6187944;23;20016;-79
2022/05/17 06:45:30;;;;;;;2.80;1.73;;;;;;;18.29;50.44;98109.84;6215212;23;20031;-80
2022/05/17 06:47:57;;;;;;;3.25;2.42;;;;;;;18.18;50.66;98108.53;6212909;23;20464;-78
2022/05/17 06:50:23;;;;;;;14.00;2.08;;;;;;;18.14;50.69;98112.69;6213228;23;20024;-80
2022/05/17 06:52:49;;;;;;;2.13;1.70;;;;;;;17.99;51.39;98112.00;6211051;23;20035;-83
2022/05/17 06:55:15;;;;;;;1.80;1.70;;;;;;;17.92;51.55;98103.00;6185346;23;20086;-82
2022/05/17 06:57:42;;;;;;;5.22;1.92;;;;;;;18.15;50.74;98102.69;6187887;23;20054;-82
2022/05/17 07:00:11;;;;;;;3.20;1.60;;;;;;;18.36;50.84;98105.28;6212961;23;20032;-81
2022/05/17 07:02:38;;;;;;;5.53;1.88;;;;;;;18.53;50.25;98102.22;6238588;23;20487;-83
2022/05/17 07:05:05;;;;;;;2.72;1.90;;;;;;;18.68;50.62;98109.13;6213709;23;20016;-86
2022/05/17 07:07:32;;;;;;;5.50;2.10;;;;;;;19.00;50.86;98106.72;6213418;23;20070;-83
2022/05/17 07:15:26;;;;;;;3.55;1.60;;;;;;;18.59;49.37;98094.13;6213375;23;20024;-89
2022/05/17 07:17:52;;;;;;;4.13;1.70;;;;;;;18.34;50.10;98087.59;6214037;23;20027;-88
2022/05/17 07:20:18;;;;;;;1.98;1.75;;;;;;;18.39;50.28;98088.66;6188548;23;20079;-83
2022/05/17 07:22:44;;;;;;;9.05;1.65;;;;;;;18.42;49.89;98085.53;6163787;23;20357;-84
2022/05/17 07:25:11;;;;;;;5.75;1.80;;;;;;;18.35;49.31;98071.13;6164624;23;20023;-85
2022/05/17 07:27:37;;;;;;;1.48;1.35;;;;;;;18.20;49.79;98063.22;6212652;23;20044;-84
2022/05/17 07:30:04;;;;;;;6.07;1.60;;;;;;;18.36;50.40;98072.00;6213074;23;20401;-81
2022/05/17 07:32:30;;;;;;;5.30;1.50;;;;;;;18.57;50.33;98068.28;6213278;23;20047;-78
2022/05/17 07:34:56;;;;;;;2.47;1.20;;;;;;;18.39;47.53;98087.81;6214089;23;20090;-78
2022/05/17 07:37:22;;;;;;;2.05;1.30;;;;;;;18.38;47.86;98062.63;6212361;23;20103;-77
2022/05/17 07:39:48;;;;;;;7.35;1.35;;;;;;;18.63;47.98;98056.66;6213216;23;20052;-78
2022/05/17 07:42:14;;;;;;;8.38;1.55;;;;;;;18.43;47.95;98051.22;6187854;23;20051;-79
2022/05/17 07:44:41;;;;;;;2.80;1.23;;;;;;;18.38;48.28;98065.31;6187361;23;20020;-79
2022/05/17 07:47:08;;;;;;;3.10;1.45;;;;;;;18.50;48.72;98062.84;6188234;23;20275;-81
2022/05/17 07:49:38;;;;;;;9.55;1.60;;;;;;;18.48;48.13;98062.25;6212928;23;20048;-78
2022/05/17 07:52:06;;;;;;;2.25;1.48;;;;;;;18.39;48.91;98068.88;6214796;23;20017;-83
2022/05/17 07:54:32;;;;;;;3.97;1.95;;;;;;;18.71;48.90;98058.38;6214067;23;20025;-84
2022/05/17 07:56:58;;;;;;;6.03;1.60;;;;;;;19.12;47.50;98050.06;6213089;23;20070;-82
2022/05/17 07:59:24;;;;;;;6.00;1.45;;;;;;;19.30;46.26;98052.97;6212553;23;20057;-82
2022/05/17 08:01:50;;;;;;;3.83;1.60;;;;;;;19.67;44.59;98049.78;6212850;23;20025;-80
2022/05/17 08:04:16;;;;;;;6.32;1.52;;;;;;;19.70;44.22;98044.78;6189805;23;20023;-83
2022/05/17 08:06:42;;;;;;;5.45;2.80;;;;;;;19.80;46.04;98058.72;6215225;23;20115;-79
2022/05/17 08:09:08;;;;;;;6.82;3.35;;;;;;;19.57;47.07;98061.88;6217153;23;20020;-80
2022/05/17 08:11:34;;;;;;;8.68;5.43;;;;;;;19.39;46.89;98048.97;6214744;23;20023;-80
2022/05/17 08:14:00;;;;;;;11.70;6.65;;;;;;;19.43;46.41;98041.25;6189887;23;20017;-80
2022/05/17 08:16:26;;;;;;;11.15;6.95;;;;;;;19.75;44.64;98046.88;6190279;23;20048;-81
2022/05/17 08:18:53;;;;;;;6.22;4.93;;;;;;;19.77;45.22;98036.63;6218056;23;20026;-81
2022/05/17 08:21:19;;;;;;;6.05;4.95;;;;;;;20.21;44.77;98030.41;6189930;23;20017;-85
2022/05/17 08:23:45;;;;;;;9.80;5.45;;;;;;;20.48;43.80;98039.22;6219989;23;20043;-82
2022/05/17 08:28:57;;;;;;;8.77;4.22;;;;;;;20.42;41.62;98034.66;6214193;23;20023;-79
2022/05/17 08:31:23;;;;;;;7.90;3.88;;;;;;;20.44;41.57;98032.56;6189940;23;20055;-80
2022/05/17 08:33:50;;;;;;;10.20;3.35;;;;;;;20.48;41.00;98022.94;6212114;23;20028;-82
2022/05/17 08:36:17;;;;;;;9.90;2.78;;;;;;;20.77;40.40;98026.13;6191343;23;20017;-81
2022/05/17 08:38:46;;;;;;;5.13;1.90;;;;;;;20.95;40.67;98022.63;6233225;23;20051;-82
2022/05/17 08:41:24;;;;;;;7.75;1.75;;;;;;;21.16;39.58;98029.56;6237422;23;20061;-80
2022/05/17 08:44:01;;;;;;;11.93;2.20;;;;;;;21.19;39.31;98023.69;6236832;23;20024;-81
2022/05/17 08:46:33;;;;;;;6.25;1.77;;;;;;;20.99;39.31;98019.25;6185647;23;20016;-82
2022/05/17 08:49:18;;;;;;;8.43;2.00;;;;;;;20.82;39.82;98023.56;6225553;23;20013;-82
2022/05/17 08:51:50;;;;;;;2.45;1.67;;;;;;;20.68;40.57;98032.84;6193890;23;20021;-81
2022/05/17 08:54:20;;;;;;;3.97;1.42;;;;;;;20.31;41.15;98048.91;6216965;23;20024;-80
2022/05/17 08:56:48;;;;;;;;;;;;;;;19.70;40.63;98046.66;6216227;23;20020;-80
2022/05/17 08:59:18;;;;;;;4.72;1.60;;;;;;;18.95;42.68;98071.28;6190375;23;19922;-82
2022/05/17 09:02:06;;;;;;;6.25;1.98;;;;;;;18.36;43.67;98072.00;6190348;23;20020;-81
2022/05/17 09:04:45;;;;;;;3.80;1.50;;;;;;;17.84;45.66;98100.47;6184149;23;20021;-81
2022/05/17 09:07:20;;;;;;;8.20;1.92;;;;;;;17.33;48.72;98130.44;6189960;23;20043;-80
2022/05/17 09:09:58;;;;;;;2.30;1.30;;;;;;;16.52;51.29;98133.38;6190154;23;20016;-81
2022/05/17 09:12:33;;;;;;;6.38;1.73;;;;;;;15.33;55.87;98164.00;6215311;23;20154;-79
2022/05/17 09:15:01;;;;;;;2.60;1.40;;;;;;;13.84;59.89;98162.28;6216460;23;20387;-78
2022/05/17 09:17:30;;;;;;;3.78;1.95;;;;;;;13.30;62.66;98152.16;6214895;23;20189;-77
2022/05/17 09:19:56;;;;;;;3.10;1.13;;;;;;;13.14;63.15;98160.19;6190191;23;20071;-78
2022/05/17 09:22:23;;;;;;;3.78;1.73;;;;;;;12.95;64.77;98157.84;6189559;23;20475;-79
2022/05/17 09:24:57;;;;;;;4.13;1.42;;;;;;;12.83;66.43;98160.84;6214654;23;20115;-78
2022/05/17 09:27:39;;;;;;;5.53;1.98;;;;;;;12.77;65.78;98147.28;6214702;23;20017;-77
2022/05/17 09:30:11;;;;;;;4.30;1.55;;;;;;;12.83;65.67;98139.41;6189981;23;20413;-80
2022/05/17 09:32:44;;;;;;;4.45;1.48;;;;;;;12.95;66.15;98128.34;6190079;23;20023;-78
2022/05/17 09:35:15;;;;;;;9.70;1.73;;;;;;;13.44;66.27;98131.84;6214601;23;20082;-77
2022/05/17 09:38:07;;;;;;;5.68;1.48;;;;;;;14.31;66.46;98132.72;6189521;23;20099;-78
2022/05/17 09:40:39;;;;;;;3.53;1.50;;;;;;;15.71;64.64;98130.66;6164882;23;20060;-78
2022/05/17 09:43:08;;;;;;;3.08;1.40;;;;;;;16.71;61.83;98131.91;6214590;23;20479;-77
2022/05/17 09:45:39;;;;;;;1.98;1.13;;;;;;;17.32;60.63;98117.97;6188730;23;20103;-78
2022/05/17 09:48:07;;;;;;;4.95;1.33;;;;;;;17.37;57.34;98123.59;6188891;23;20167;-79
2022/05/17 09:53:40;;;;;;;3.05;1.38;;;;;;;18.09;58.83;98103.50;6214239;23;20027;-77
2022/05/17 09:56:07;;;;;;;1.95;1.38;;;;;;;18.64;56.33;98107.88;6214599;23;20112;-79
2022/05/17 09:58:36;;;;;;;1.48;1.30;;;;;;;18.58;53.86;98092.47;6164565;23;20017;-78
2022/05/17 10:01:15;;;;;;;1.88;1.30;;;;;;;18.83;55.78;98102.72;6214275;23;20103;-79
2022/05/17 10:03:44;;;;;;;5.70;1.92;;;;;;;18.76;56.91;98118.13;6189375;23;20020;-79
2022/05/17 10:06:26;;;;;;;4.70;1.77;;;;;;;18.41;55.41;98108.22;6216097;23;20092;-78
2022/05/17 10:09:11;;;;;;;3.38;2.15;;;;;;;18.07;56.27;98114.53;6215738;23;20440;-79
2022/05/17 10:11:52;;;;;;;6.18;2.20;;;;;;;17.66;57.17;98120.72;6214755;23;20024;-78
2022/05/17 10:14:44;;;;;;;4.82;2.00;;;;;;;17.41;57.01;98117.63;6214754;23;20020;-79
2022/05/17 10:17:18;;;;;;;5.43;2.40;;;;;;;17.10;57.02;98122.56;6214353;23;20103;-79
2022/05/17 10:19:56;;;;;;;5.60;2.53;;;;;;;16.88;58.21;98121.72;6188812;23;20016;-79
2022/05/17 10:23:03;;;;;;;3.90;2.13;;;;;;;16.59;58.55;98131.59;6214474;23;20472;-79
2022/05/17 10:25:44;;;;;;;3.28;2.50;;;;;;;16.37;59.17;98135.25;6200296;23;20025;-79
2022/05/17 10:28:38;;;;;;;3.80;2.22;;;;;;;16.17;60.48;98135.84;6214178;23;20452;-80
2022/05/17 10:31:33;;;;;;;3.60;2.30;;;;;;;16.14;60.42;98106.56;6189102;23;20451;-78
2022/05/17 10:34:25;;;;;;;4.72;2.42;;;;;;;16.40;61.04;98097.13;6188800;23;20016;-79
2022/05/17 10:36:57;;;;;;;7.28;2.38;;;;;;;16.53;60.91;98086.47;6214381;23;20020;-79
2022/05/17 10:39:56;;;;;;;5.85;2.10;;;;;;;16.64;60.82;98087.84;6215760;23;20091;-80
2022/05/17 10:42:35;;;;;;;4.70;2.28;;;;;;;16.49;61.16;98079.78;6186130;23;20023;-80
2022/05/17 10:45:03;;;;;;;5.82;2.90;;;;;;;16.21;61.56;98077.84;6214380;23;20013;-78
2022/05/17 10:47:41;;;;;;;4.32;2.70;;;;;;;15.97;61.75;98086.22;6213430;23;20108;-81
2022/05/17 10:50:16;;;;;;;4.55;3.28;;;;;;;15.64;62.14;98083.88;6215613;23;20021;-79
2022/05/17 10:52:49;;;;;;;3.92;3.00;;;;;;;15.56;62.60;98121.69;6213385;23;20432;-80
2022/05/17 10:55:31;;;;;;;3.85;2.30;;;;;;;15.24;61.33;98169.47;6214189;23;20025;-79
2022/05/17 10:58:17;;;;;;;5.45;1.70;;;;;;;14.24;63.30;98164.00;6188848;23;20013;-78
2022/05/17 11:00:52;;;;;;;6.85;2.08;;;;;;;13.49;66.97;98171.59;6188621;23;20020;-76
2022/05/17 11:03:33;;;;;;;5.75;1.77;;;;;;;13.20;68.66;98166.72;6213370;23;20364;-77
2022/05/17 11:06:11;;;;;;;1.88;1.65;;;;;;;13.15;69.15;98169.91;6215195;23;20539;-77
2022/05/17 11:08:46;;;;;;;2.63;1.33;;;;;;;13.11;68.19;98161.38;6163946;23;20019;-76
2022/05/17 11:11:41;;;;;;;1.23;0.90;;;;;;;13.32;67.54;98142.13;6213971;23;20372;-77
2022/05/17 11:14:21;;;;;;;1.15;0.80;;;;;;;13.97;67.08;98141.09;6218682;23;20103;-80
2022/05/17 11:17:14;;;;;;;1.15;0.90;;;;;;;15.61;67.64;98138.16;6214905;23;20023;-77
2022/05/17 11:19:47;;;;;;;3.72;1.10;;;;;;;17.07;59.73;98112.97;6183733;23;20468;-78
2022/05/17 11:22:21;;;;;;;0.98;0.90;;;;;;;17.77;59.99;98113.13;6188883;23;20016;-78
2022/05/17 11:24:53;;;;;;;2.10;1.00;;;;;;;19.14;54.88;98119.25;6213628;23;20074;-78
2022/05/17 11:27:22;;;;;;;1.00;0.88;;;;;;;20.06;52.25;98125.63;6188818;23;20119;-78
2022/05/17 11:30:08;;;;;;;1.05;0.82;;;;;;;20.52;53.79;98116.50;6213375;23;20017;-78
2022/05/17 11:32:40;;;;;;;1.05;0.88;;;;;;;20.52;48.97;98116.50;6188667;23;20017;-76
2022/05/17 11:35:31;;;;;;;2.10;1.00;;;;;;;20.44;49.16;98114.00;6214135;23;20321;-76
2022/05/17 11:37:57;;;;;;;5.35;1.05;;;;;;;20.17;50.93;98110.56;6215586;23;20012;-78
2022/05/17 11:40:56;;;;;;;2.38;1.20;;;;;;;19.82;49.01;98116.31;6241054;23;20016;-79
2022/05/17 11:43:42;;;;;;;1.13;1.00;;;;;;;19.74;50.33;98112.97;6198757;23;20027;-90
2022/05/17 11:46:31;;;;;;;2.38;1.10;;;;;;;19.56;50.20;98117.16;6216851;23;20039;-78
2022/05/17 11:49:24;;;;;;;3.72;1.38;;;;;;;19.54;49.82;98124.63;6215246;23;20028;-79
2022/05/17 11:51:59;;;;;;;3.35;1.20;;;;;;;19.34;50.71;98108.41;6241120;23;20031;-78
2022/05/17 11:54:45;;;;;;;4.55;1.20;;;;;;;19.31;50.44;98118.81;6165761;23;20020;-79
2022/05/17 11:57:32;;;;;;;2.63;1.10;;;;;;;19.09;49.97;98121.72;6190481;23;20028;-79